1872 NOT_NAMED (1872032S15074)


IBTrACS version v04r00. Visit IBTrACS website for data access.
Please direct all questions to the IBTrACS Q and A forum

Storm track - Intensity - Wind Radii - Intensity Data - Source Data - All data

Summary Information

Storm ID 1872032S15074
Start Feb 1 06Z
End Feb 7 06Z
ATCF IDs
Track status Best track data.
Spur track This storm is a spur track associated with the main storm: 1872032S15074

Storm track plot

Map of storm track

Intensity plots

No Intensity information for this storm


Radial wind information

No radial wind information for this storm


Position and Intensity Table

BASIN ISO_TIME_________ NATURE LAT LON
degrees north degrees east
SI 1872-02-01 06:00:00 NR -14.80 74.20
SI 09:00:00 NR -14.87 73.98
SI 12:00:00 NR -14.95 73.76
SI 15:00:00 NR -15.02 73.53
SI 18:00:00 NR -15.10 73.30
SI 21:00:00 NR -15.19 73.05
SI 1872-02-02 00:00:00 NR -15.28 72.79
SI 03:00:00 NR -15.39 72.50
SI 06:00:00 NR -15.50 72.20
SI 09:00:00 NR -15.63 71.87
SI 12:00:00 NR -15.76 71.52
SI 15:00:00 NR -15.92 71.15
SI 18:00:00 NR -16.09 70.77
SI 21:00:00 NR -16.28 70.37
SI 1872-02-03 00:00:00 NR -16.50 69.95
SI 03:00:00 NR -16.74 69.53
SI 06:00:00 NR -17.00 69.10
SI 09:00:00 NR -17.29 68.63
SI 12:00:00 NR -17.62 68.13
SI 15:00:00 NR -17.96 67.64
SI 18:00:00 NR -18.32 67.15
SI 21:00:00 NR -18.69 66.68
SI 1872-02-04 00:00:00 NR -19.06 66.24
SI 03:00:00 NR -19.44 65.84
SI 06:00:00 NR -19.80 65.50
SI 09:00:00 NR -20.12 65.19
SI 12:00:00 NR -20.44 64.93
SI 15:00:00 NR -20.76 64.72
SI 18:00:00 NR -21.07 64.56
SI 21:00:00 NR -21.39 64.46
SI 1872-02-05 00:00:00 NR -21.72 64.41
SI 03:00:00 NR -22.05 64.42
SI 06:00:00 NR -22.40 64.50
SI 09:00:00 NR -22.81 64.65
SI 12:00:00 NR -23.24 64.88
SI 15:00:00 NR -23.67 65.16
SI 18:00:00 NR -24.10 65.48
SI 21:00:00 NR -24.50 65.82
SI 1872-02-06 00:00:00 NR -24.88 66.17
SI 03:00:00 NR -25.22 66.50
SI 06:00:00 NR -25.50 66.80
SI 09:00:00 NR -25.72 67.05
SI 12:00:00 NR -25.89 67.26
SI 15:00:00 NR -26.02 67.43
SI 18:00:00 NR -26.10 67.56
SI 21:00:00 NR -26.15 67.67
SI 1872-02-07 00:00:00 NR -26.18 67.76
SI 03:00:00 NR -26.19 67.83
SI 06:00:00 NR -26.20 67.90

Source Information

Agency Information
USA
TOKYO
CMA
HKO
NEWDELHI
REUNION WMO-Best-Tracks.txt:Line=910:xxxx872134
BOM
NADI
WELLINGTON
DS824
TD9636
TD9635
NEUMANN
MLC

All available IBTrACS Data

SEASON BASIN SUBBASIN ISO_TIME_________ NATURE LAT LON WMO AGENCY DIST2LAND LANDFALL IFLAG USA SSHS REUNION LAT REUNION LON REUNION TYPE REUNION TNUM STORM SPEED STORM DIR
Year degrees north degrees east km km 1 degrees north degrees east 1 kts degrees
1872 SI MM 1872-02-01 06:00:00 NR -14.80 74.20 reunion 1843 1819 _____O________ -1 -14.80 74.20 99 9.90 4 251
1872 SI MM 09:00:00 NR -14.87 73.98 1819 1799 _____P________ -1 -14.87 73.98 99 4 251
1872 SI MM 12:00:00 NR -14.95 73.76 1799 1765 _____P________ -1 -14.95 73.76 99 5 251
1872 SI MM 15:00:00 NR -15.02 73.53 1765 1741 _____P________ -1 -15.02 73.53 99 5 251
1872 SI MM 18:00:00 NR -15.10 73.30 1741 1717 _____P________ -1 -15.10 73.30 99 5 250
1872 SI MM 21:00:00 NR -15.19 73.05 1717 1682 _____P________ -1 -15.19 73.05 99 5 250
1872 SI MM 1872-02-02 00:00:00 NR -15.28 72.79 1682 1648 _____P________ -1 -15.28 72.79 99 6 249
1872 SI MM 03:00:00 NR -15.39 72.50 1648 1614 _____P________ -1 -15.39 72.50 99 6 249
1872 SI MM 06:00:00 NR -15.50 72.20 reunion 1614 1580 _____O________ -1 -15.50 72.20 99 9.90 7 249
1872 SI MM 09:00:00 NR -15.63 71.87 1580 1532 _____P________ -1 -15.63 71.87 99 7 248
1872 SI MM 12:00:00 NR -15.76 71.52 1532 1498 _____P________ -1 -15.76 71.52 99 8 247
1872 SI MM 15:00:00 NR -15.92 71.15 1498 1450 _____P________ -1 -15.92 71.15 99 8 246
1872 SI MM 18:00:00 NR -16.09 70.77 1450 1403 _____P________ -1 -16.09 70.77 99 8 244
1872 SI MM 21:00:00 NR -16.28 70.37 1403 1355 _____P________ -1 -16.28 70.37 99 9 243
1872 SI MM 1872-02-03 00:00:00 NR -16.50 69.95 1355 1307 _____P________ -1 -16.50 69.95 99 9 241
1872 SI MM 03:00:00 NR -16.74 69.53 1297 1246 _____P________ -1 -16.74 69.53 99 10 238
1872 SI MM 06:00:00 NR -17.00 69.10 reunion 1246 1195 _____O________ -1 -17.00 69.10 99 9.90 10 237
1872 SI MM 09:00:00 NR -17.29 68.63 1185 1134 _____P________ -1 -17.29 68.63 99 11 236
1872 SI MM 12:00:00 NR -17.62 68.13 1124 1074 _____P________ -1 -17.62 68.13 99 12 235
1872 SI MM 15:00:00 NR -17.96 67.64 1060 1011 _____P________ -1 -17.96 67.64 99 12 233
1872 SI MM 18:00:00 NR -18.32 67.15 1001 949 _____P________ -1 -18.32 67.15 99 12 231
1872 SI MM 21:00:00 NR -18.69 66.68 949 901 _____P________ -1 -18.69 66.68 99 11 229
1872 SI MM 1872-02-04 00:00:00 NR -19.06 66.24 889 852 _____P________ -1 -19.06 66.24 99 11 227
1872 SI MM 03:00:00 NR -19.44 65.84 842 806 _____P________ -1 -19.44 65.84 99 10 223
1872 SI MM 06:00:00 NR -19.80 65.50 reunion 806 772 _____O________ -1 -19.80 65.50 99 9.90 9 222
1872 SI MM 09:00:00 NR -20.12 65.19 772 740 _____P________ -1 -20.12 65.19 99 8 220
1872 SI MM 12:00:00 NR -20.44 64.93 740 719 _____P________ -1 -20.44 64.93 99 8 215
1872 SI MM 15:00:00 NR -20.76 64.72 720 710 _____P________ -1 -20.76 64.72 99 7 209
1872 SI MM 18:00:00 NR -21.07 64.56 712 702 _____P________ -1 -21.07 64.56 99 7 201
1872 SI MM 21:00:00 NR -21.39 64.46 706 696 _____P________ -1 -21.39 64.46 99 7 192
1872 SI MM 1872-02-05 00:00:00 NR -21.72 64.41 702 702 _____P________ -1 -21.72 64.41 99 7 184
1872 SI MM 03:00:00 NR -22.05 64.42 712 712 _____P________ -1 -22.05 64.42 99 7 173
1872 SI MM 06:00:00 NR -22.40 64.50 reunion 732 732 _____O________ -1 -22.40 64.50 99 9.90 8 164
1872 SI MM 09:00:00 NR -22.81 64.65 766 766 _____P________ -1 -22.81 64.65 99 9 158
1872 SI MM 12:00:00 NR -23.24 64.88 801 801 _____P________ -1 -23.24 64.88 99 10 152
1872 SI MM 15:00:00 NR -23.67 65.16 851 851 _____P________ -1 -23.67 65.16 99 10 147
1872 SI MM 18:00:00 NR -24.10 65.48 897 897 _____P________ -1 -24.10 65.48 99 10 144
1872 SI MM 21:00:00 NR -24.50 65.82 944 944 _____P________ -1 -24.50 65.82 99 10 141
1872 SI MM 1872-02-06 00:00:00 NR -24.88 66.17 1000 1000 _____P________ -1 -24.88 66.17 99 9 139
1872 SI MM 03:00:00 NR -25.22 66.50 1042 1042 _____P________ -1 -25.22 66.50 99 8 137
1872 SI MM 06:00:00 NR -25.50 66.80 reunion 1085 1085 _____O________ -1 -25.50 66.80 99 9.90 7 136
1872 SI MM 09:00:00 NR -25.72 67.05 1122 1122 _____P________ -1 -25.72 67.05 99 6 134
1872 SI MM 12:00:00 NR -25.89 67.26 1150 1150 _____P________ -1 -25.89 67.26 99 4 131
1872 SI MM 15:00:00 NR -26.02 67.43 1165 1165 _____P________ -1 -26.02 67.43 99 3 127
1872 SI MM 18:00:00 NR -26.10 67.56 1188 1188 _____P________ -1 -26.10 67.56 99 3 122
1872 SI MM 21:00:00 NR -26.15 67.67 1202 1202 _____P________ -1 -26.15 67.67 99 2 115
1872 SI MM 1872-02-07 00:00:00 NR -26.18 67.76 1210 1210 _____P________ -1 -26.18 67.76 99 2 106
1872 SI MM 03:00:00 NR -26.19 67.83 1210 1210 _____P________ -1 -26.19 67.83 99 1 98
1872 SI MM 06:00:00 NR -26.20 67.90 reunion 1219 _____O________ -1 -26.20 67.90 99 9.90 1 96